Flight Track Log - Related Links

Times and Time Zones

All times are in EDT time to prevent confusion due to time zone crossing. See the SWA1688 flight status page for this flight to view local times or setup timezone preferences in your user account.

Time Position Orientation Groundspeed Altitude Reporting Facility
EDT Latitude Longitude Course Direction KTS MPH feet Rate Location/Type
Thu 09:27:53 PM 28.4167 -81.3000 150° Southeast 145 167 1,000  Level Orlando TRACON
Thu 09:29:06 PM 28.3667 -81.2667 150° Southeast 182 209 5,600 3,925 Climbing Orlando TRACON
Thu 09:30:06 PM 28.3667 -81.2167 90° East 217 250 9,700 3,250 Climbing Orlando TRACON
Thu 09:31:06 PM 28.4500 -81.2333 350° North 335 386 12,100 3,134 Climbing Orlando TRACON
Thu 09:32:43 PM 28.6028 -81.2658 349° North 352 405 17,900 3,304 Climbing Jacksonville Center
Thu 09:33:44 PM 28.7056 -81.2925 347° North 357 411 20,800 2,950 Climbing Jacksonville Center
Thu 09:34:43 PM 28.8144 -81.3217 347° North 374 430 23,800 2,650 Climbing Jacksonville Center
Thu 09:35:44 PM 28.9275 -81.3483 348° North 387 445 26,100 2,380 Climbing Jacksonville Center
Thu 09:36:44 PM 29.0467 -81.3772 348° North 432 497 28,600 2,420 Climbing Jacksonville Center
Thu 09:37:43 PM 29.1681 -81.3967 352° North 438 504 30,900 2,420 Climbing Jacksonville Center
Thu 09:38:43 PM 29.2914 -81.4092 355° North 444 511 33,400 2,430 Climbing Jacksonville Center
Thu 09:39:44 PM 29.4106 -81.4217 355° North 432 497 35,800 1,983 Climbing Jacksonville Center
Thu 09:40:44 PM 29.5169 -81.4344 354° North 432 497 37,400 1,850 Climbing Jacksonville Center
Thu 09:41:44 PM 29.6506 -81.4253 North 427 491 39,500 1,800 Climbing Jacksonville Center
Thu 09:42:44 PM 29.7714 -81.4139 North 427 491 41,000 756 Climbing Jacksonville Center
Thu 09:43:43 PM 29.8883 -81.4050 North 422 486 41,000  Level Jacksonville Center
Thu 09:44:44 PM 30.0050 -81.3936 North 422 486 41,000  Level Jacksonville Center
Thu 09:45:43 PM 30.1261 -81.3797 North 422 486 41,000  Level Jacksonville Center
Thu 09:46:43 PM 30.2450 -81.3681 North 422 486 41,000  Level Jacksonville Center
Thu 09:47:43 PM 30.3639 -81.3592 North 422 486 41,000  Level Jacksonville Center
Thu 09:48:43 PM 30.4806 -81.3428 North 422 486 41,000  Level Jacksonville Center
Thu 09:49:43 PM 30.5947 -81.2950 20° North 422 486 41,000  Level Jacksonville Center
Thu 09:50:43 PM 30.7089 -81.2472 20° North 427 491 41,000  Level Jacksonville Center
Thu 09:51:43 PM 30.8211 -81.1967 21° North 427 491 41,000  Level Jacksonville Center
Thu 09:52:43 PM 30.9353 -81.1489 20° North 427 491 41,000  Level Jacksonville Center
Thu 09:53:43 PM 31.0494 -81.0981 21° North 427 491 41,000  Level Jacksonville Center
Thu 09:54:44 PM 31.1614 -81.0500 20° North 427 491 41,000  Level Jacksonville Center
Thu 09:55:43 PM 31.2756 -80.9992 21° North 429 494 41,000  Level Jacksonville Center
Thu 09:56:43 PM 31.3897 -80.9506 20° North 429 494 41,000  Level Jacksonville Center
Thu 09:57:43 PM 31.5056 -80.8969 22° Northeast 429 494 41,000  Level Jacksonville Center
Thu 09:58:43 PM 31.6072 -80.8533 20° North 429 494 41,000  Level Jacksonville Center
Thu 09:59:44 PM 31.7336 -80.7967 21° North 429 494 41,000  Level Jacksonville Center
Thu 10:00:43 PM 31.8353 -80.7528 20° North 429 494 41,000  Level Jacksonville Center
Thu 10:01:43 PM 31.9639 -80.6961 20° North 429 494 41,000  Level Jacksonville Center
Thu 10:02:43 PM 32.0756 -80.6467 21° North 429 494 41,000  Level Jacksonville Center
Thu 10:03:43 PM 32.1792 -80.6000 21° North 429 494 41,000  Level Jacksonville Center
Thu 10:04:43 PM 32.2911 -80.5506 20° North 429 494 41,000  Level Jacksonville Center
Thu 10:05:43 PM 32.4028 -80.5008 21° North 429 494 41,000  Level Jacksonville Center
Thu 10:06:43 PM 32.5167 -80.4486 21° North 429 494 41,000  Level Jacksonville Center
Thu 10:07:43 PM 32.6264 -80.3989 21° North 429 494 41,000  Level Jacksonville Center
Thu 10:08:43 PM 32.7381 -80.3464 22° Northeast 429 494 41,000  Level Jacksonville Center
Thu 10:09:43 PM 32.8497 -80.2964 21° North 429 494 41,000  Level Jacksonville Center
Thu 10:10:43 PM 32.9675 -80.2433 21° North 434 499 41,000  Level Jacksonville Center
Thu 10:11:43 PM 33.0792 -80.1931 21° North 443 510 41,000  Level Jacksonville Center
Thu 10:12:43 PM 33.2114 -80.1319 21° North 450 518 41,000  Level Jacksonville Center
Thu 10:13:43 PM 33.3189 -80.0839 20° North 439 505 41,000  Level Jacksonville Center
Thu 10:14:43 PM 33.4283 -80.0331 21° North 426 490 41,000  Level Jacksonville Center
Thu 10:15:43 PM 33.5400 -79.9819 21° North 426 490 41,000  Level Jacksonville Center
Thu 10:16:43 PM 33.6494 -79.9311 21° North 426 490 41,000  Level Jacksonville Center
Thu 10:18:43 PM 33.8461 -79.8372 22° Northeast 396 456 41,000  Level Washington Center
Thu 10:19:46 PM 33.9583 -79.7878 20° North 407 468 41,000  Level Washington Center
Thu 10:20:44 PM 34.0686 -79.7358 21° North 414 476 41,000  Level Washington Center
Thu 10:21:45 PM 34.1789 -79.6861 20° North 414 476 41,000  Level Washington Center
Thu 10:22:44 PM 34.2914 -79.6289 23° Northeast 420 483 41,000  Level Washington Center
Thu 10:23:44 PM 34.3997 -79.5711 24° Northeast 420 483 41,000  Level Washington Center
Thu 10:24:44 PM 34.5103 -79.5111 24° Northeast 420 483 41,000  Level Washington Center
Thu 10:25:43 PM 34.6186 -79.4558 23° Northeast 420 483 41,000  Level Washington Center
Thu 10:26:45 PM 34.7267 -79.4003 23° Northeast 420 483 41,000  Level Washington Center
Thu 10:27:45 PM 34.8350 -79.3419 24° Northeast 420 483 41,000  Level Washington Center
Thu 10:28:43 PM 34.9431 -79.2861 23° Northeast 420 483 41,000  Level Washington Center
Thu 10:29:44 PM 35.0533 -79.2278 23° Northeast 420 483 41,000  Level Washington Center
Thu 10:30:45 PM 35.1617 -79.1692 24° Northeast 420 483 41,000  Level Washington Center
Thu 10:31:43 PM 35.2675 -79.1128 24° Northeast 420 483 41,000  Level Washington Center
Thu 10:32:44 PM 35.3736 -79.0589 22° Northeast 420 483 41,000  Level Washington Center
Thu 10:33:44 PM 35.4794 -79.0022 24° Northeast 414 476 41,000  Level Washington Center
Thu 10:34:45 PM 35.5833 -78.9481 23° Northeast 409 471 41,000  Level Washington Center
Thu 10:35:43 PM 35.6914 -78.8886 24° Northeast 409 471 41,000  Level Washington Center
Thu 10:36:45 PM 35.8078 -78.8269 23° Northeast 409 471 41,000  Level Washington Center
Thu 10:37:44 PM 35.9097 -78.7592 28° Northeast 404 465 41,000  Level Washington Center
Thu 10:38:44 PM 36.0058 -78.6731 36° Northeast 416 479 41,000  Level Washington Center
Thu 10:39:45 PM 36.1019 -78.5894 35° Northeast 422 486 41,000  Level Washington Center
Thu 10:40:46 PM 36.1958 -78.5031 37° Northeast 422 486 41,000  Level Washington Center
Thu 10:41:43 PM 36.2939 -78.4164 35° Northeast 422 486 41,000  Level Washington Center
Thu 10:42:43 PM 36.3897 -78.3347 34° Northeast 415 478 41,000  Level Washington Center
Thu 10:43:44 PM 36.4814 -78.2503 37° Northeast 415 478 41,000  Level Washington Center
Thu 10:44:45 PM 36.5750 -78.1653 36° Northeast 415 478 41,000  Level Washington Center
Thu 10:45:45 PM 36.6581 -78.0878 37° Northeast 415 478 41,000  Level Washington Center
Thu 10:46:45 PM 36.7514 -78.0053 35° Northeast 415 478 41,000  Level Washington Center
Thu 10:47:43 PM 36.8447 -77.9225 35° Northeast 415 478 41,000  Level Washington Center
Thu 10:48:43 PM 36.9406 -77.8344 36° Northeast 415 478 41,000  Level Washington Center
Thu 10:49:43 PM 37.0358 -77.7514 35° Northeast 415 478 41,000  Level Washington Center
Thu 10:50:44 PM 37.1292 -77.6628 37° Northeast 415 478 41,000  Level Washington Center
Thu 10:51:43 PM 37.2244 -77.5767 36° Northeast 415 478 41,000  Level Washington Center
Thu 10:52:43 PM 37.3197 -77.4903 36° Northeast 415 478 41,000  Level Washington Center
Thu 10:53:45 PM 37.4169 -77.4039 35° Northeast 415 478 41,000  Level Washington Center
Thu 10:54:44 PM 37.5144 -77.3119 37° Northeast 420 483 41,000  Level Washington Center
Thu 10:55:45 PM 37.6014 -77.2117 42° Northeast 420 483 41,000  Level Washington Center
Thu 10:56:45 PM 37.6881 -77.1058 44° Northeast 420 483 41,000  Level Washington Center
Thu 10:57:43 PM 37.7769 -77.0028 42° Northeast 420 483 41,000  Level Washington Center
Thu 10:58:44 PM 37.8636 -76.8992 43° Northeast 425 489 41,000  Level Washington Center
Thu 10:59:45 PM 37.9525 -76.7953 43° Northeast 425 489 41,000  Level Washington Center
Thu 11:00:45 PM 38.0408 -76.6911 43° Northeast 425 489 41,000  Level Washington Center
Thu 11:01:43 PM 38.1294 -76.5842 43° Northeast 425 489 41,000  Level Washington Center
Thu 11:02:45 PM 38.2200 -76.4825 41° Northeast 425 489 41,000  Level Washington Center
Thu 11:03:43 PM 38.3144 -76.3775 41° Northeast 420 483 41,000  Level Washington Center
Thu 11:04:44 PM 38.4108 -76.2886 36° Northeast 415 478 41,000  Level Washington Center
Thu 11:05:45 PM 38.5053 -76.1992 37° Northeast 415 478 41,000  Level Washington Center
Thu 11:06:43 PM 38.6058 -76.1069 36° Northeast 427 491 41,000  Level Washington Center
Thu 11:07:45 PM 38.7019 -76.0172 36° Northeast 432 497 41,000  Level Washington Center
Thu 11:08:44 PM 38.7981 -75.9272 36° Northeast 432 497 41,000  Level Washington Center
Thu 11:09:44 PM 38.8942 -75.8369 36° Northeast 432 497 41,000  Level Washington Center
Thu 11:10:43 PM 38.9903 -75.7464 36° Northeast 432 497 41,000  Level Washington Center
Thu 11:11:44 PM 39.0842 -75.6583 36° Northeast 426 490 41,000  Level Washington Center
Thu 11:12:44 PM 39.1781 -75.5675 37° Northeast 426 490 41,000  Level Washington Center
Thu 11:13:44 PM 39.2739 -75.4789 36° Northeast 426 490 41,000  Level Washington Center
Thu 11:15:24 PM 39.4264 -75.3453 34° Northeast 423 487 41,000  Level New York Center
Thu 11:16:27 PM 39.5217 -75.2572 35° Northeast 417 480 41,000  Level New York Center
Thu 11:17:25 PM 39.6167 -75.1717 35° Northeast 417 480 41,000  Level New York Center
Thu 11:18:25 PM 39.7203 -75.0703 37° Northeast 422 486 41,000  Level New York Center
Thu 11:19:25 PM 39.8214 -74.9844 33° Northeast 422 486 41,000 -99 Level New York Center
Thu 11:20:26 PM 39.9206 -74.8986 34° Northeast 422 486 40,800 -793 Descending New York Center
Thu 11:21:26 PM 40.0167 -74.8256 30° Northeast 422 486 39,400 -1,160 Descending New York Center
Thu 11:22:25 PM 40.1328 -74.7861 15° North 410 472 38,500 -900 Descending New York Center
Thu 11:23:26 PM 40.2511 -74.7386 17° North 431 496 37,600 -934 Descending New York Center
Thu 11:24:27 PM 40.3692 -74.6936 16° North 441 507 36,600 -958 Descending New York Center
Thu 11:25:25 PM 40.4853 -74.6511 16° North 441 507 35,700 -918 Descending New York Center
Thu 11:27:43 PM 40.7447 -74.5494 17° North 439 505 33,600 -939 Descending Boston Center
Thu 11:28:43 PM 40.8600 -74.5039 17° North 439 505 32,600 -1,050 Descending Boston Center
Thu 11:29:43 PM 40.9903 -74.4558 16° North 439 505 31,500 -1,200 Descending Boston Center
Thu 11:30:43 PM 41.1078 -74.4125 16° North 439 505 30,200 -1,950 Descending Boston Center
Thu 11:31:43 PM 41.2314 -74.3694 15° North 439 505 27,600 -2,100 Descending Boston Center
Thu 11:32:43 PM 41.3386 -74.3228 18° North 423 487 26,000 -800 Descending Boston Center
Thu 11:33:43 PM 41.4497 -74.2792 16° North 417 480 26,000 -400 Level Boston Center
Thu 11:34:43 PM 41.5608 -74.2378 16° North 417 480 25,200 -2,100 Descending Boston Center
Thu 11:35:43 PM 41.6739 -74.1939 16° North 422 486 21,800 -2,800 Descending Boston Center
Thu 11:36:43 PM 41.7622 -74.1600 16° North 422 486 19,600 -2,900 Descending Boston Center
Thu 11:37:43 PM 41.8836 -74.1103 17° North 398 458 16,000 -3,091 Descending Boston Center
Thu 11:38:22 PM 41.9528 -74.0872 14° North 385 443 14,500 -2,100 Descending Boston Center
Thu 11:38:43 PM 41.9864 -74.0711 20° North 383 441 13,900 -2,296 Descending Boston Center
Thu 11:39:43 PM 42.0808 -74.0317 17° North 372 428 11,400 -1,452 Descending Boston Center
Thu 11:40:47 PM 42.1750 -73.9978 15° North 321 369 10,900 -700 Descending Boston Center
Thu 11:41:43 PM 42.2464 -73.9658 18° North 300 345 10,000 -1,138 Descending Boston Center
Thu 11:42:43 PM 42.3114 -73.9422 15° North 283 326 8,700 -1,476 Descending Boston Center
Thu 11:43:49 PM 42.4033 -73.9050 17° North 274 315 6,900 -1,512 Descending Boston Center
Thu 11:44:50 PM 42.4747 -73.8786 15° North 266 306 5,500 -1,313 Descending Boston Center
Thu 11:45:57 PM 42.5439 -73.8492 17° North 239 275 4,100 -1,181 Descending Boston Center
Thu 11:46:57 PM 42.6003 -73.8278 16° North 210 242 3,000 -1,038 Descending Boston Center
Thu 11:48:10 PM 42.6569 -73.8008 19° North 159 183 1,800 -851 Descending Boston Center
Thu 11:49:11 PM 42.6922 -73.8072 352° North 119 137 1,100 -645 Descending Boston Center
Thu 11:50:11 PM 42.7278 -73.8081 359° North 120 138 500 -600 Descending Boston Center

Login

Don't have an account? Register now (free) for customized features, flight alerts, and more!